Cullen, Virginia
Current Conditions -  °F | °C
As of 5:15 PM on Monday 26 Jan 2015 (Local Time) from KFVX Reporting Station
Overcast Overcast  
Wind Chill: 33°   Ceiling: 600
Heat Index: 39°   Visibility: 10mi
Dew Point: 39°   Wind: 10mph
Humidity: 100%   Direction: 30°NNE
Pressure: 29.64"   Gusts: NA
Location:  37.12°N, 78.65°W
Report Text: KFVX 262215Z AUTO 03009KT 10SM OVC006 04/04 A2964 RMK AO2 T00410041
Loading
Personal Weather Stations






























Interactive Weather Map New forecast layout! Learn more

10-Day Weather Forecast

Advertisements
Track Severe Weather on mobile